ADDS METAR Data INFO
IDs: Format: Raw Decoded Include TAF

Data at: 1409 UTC 12 Dec 2017

KTKC 121355Z AUTO 23007KT 10SM SCT017 BKN060 M08/M10 A3018 RMK AO2 T10841103
KTKC 121335Z AUTO 23006KT 10SM BKN060 M09/M11 A3020 RMK AO2 T10911107
KTKC 121315Z AUTO 24005KT 10SM CLR M10/M11 A3022 RMK AO2 T10971115
KTKC 121255Z AUTO 25005KT 10SM CLR M09/M11 A3022 RMK AO2 T10951113
KTKC 121235Z AUTO 26004KT 10SM SCT070 M10/M12 A3023 RMK AO2 T11001119
KTKC 121215Z AUTO 26004KT 10SM SCT070 M11/M12 A3024 RMK AO2 T11071125
KTKC 121155Z AUTO 26005KT 10SM CLR M11/M13 A3024 RMK AO2 T11081126 11100 21113
KTKC 121135Z AUTO 26005KT 10SM CLR M11/M13 A3025 RMK AO2 T11131129
KTKC 121115Z AUTO 27004KT 10SM CLR M11/M13 A3027 RMK AO2 T11101126
KTKC 121056Z AUTO 26003KT 10SM CLR M11/M12 A3027 RMK AO2 T11071122
KTKC 121035Z AUTO 30005KT 10SM CLR M11/M12 A3027 RMK AO2 T11071121
KTKC 121015Z AUTO 31007KT 10SM CLR M11/M12 A3027 RMK AO2 T11091124
KTKC 120956Z AUTO 30005KT 10SM CLR M11/M12 A3027 RMK AO2 T11111125
KTKC 120935Z AUTO 30007KT 10SM CLR M11/M12 A3028 RMK AO2 T11101123
KTKC 120915Z AUTO 32007KT 10SM CLR M11/M12 A3028 RMK AO2 T11061120
KTKC 120855Z AUTO 31007KT 10SM CLR M11/M12 A3029 RMK AO2 T11061120
KTKC 120835Z AUTO 31006KT 10SM CLR M11/M12 A3029 RMK AO2 T11081121
KTKC 120815Z AUTO 31007KT 10SM CLR M11/M12 A3029 RMK AO2 T11061118
KTKC 120755Z AUTO 32009KT 10SM CLR M10/M11 A3029 RMK AO2 T11021115
KTKC 120735Z AUTO 32009KT 10SM CLR M10/M11 A3030 RMK AO2 T11021115
KTKC 120715Z AUTO 32010KT 10SM CLR M10/M11 A3030 RMK AO2 T11001115
KTKC 120655Z AUTO 31011KT 10SM CLR M10/M11 A3030 RMK AO2 T11011115
KTKC 120635Z AUTO 31010KT 10SM CLR M10/M11 A3030 RMK AO2 T11001115
KTKC 120615Z AUTO 31011KT 10SM CLR M10/M11 A3030 RMK AO2 T11001114
KTKC 120555Z AUTO 31011KT 10SM CLR M10/M11 A3030 RMK AO2 T11001115 11059 21100 400451100
KTKC 120535Z AUTO 32012KT 10SM CLR M10/M11 A3031 RMK AO2 T10981114
KTKC 120515Z AUTO 32011KT 10SM CLR M10/M11 A3031 RMK AO2 T10971115
KTKC 120455Z AUTO 33013KT 10SM CLR M09/M11 A3030 RMK AO2 T10951115
KTKC 120435Z AUTO 32014G20KT 10SM CLR M09/M11 A3030 RMK AO2 T10951115
KTKC 120415Z AUTO 33014KT 10SM CLR M09/M12 A3030 RMK AO2 T10901116
KTKC 120355Z AUTO 33015G19KT 10SM CLR M09/M12 A3030 RMK AO2 T10901120
KTKC 120335Z AUTO 33016G22KT 10SM CLR M09/M12 A3030 RMK AO2 T10871120
KTKC 120315Z AUTO 34016G21KT 10SM CLR M09/M12 A3029 RMK AO2 T10861120
KTKC 120255Z AUTO 34014KT 10SM CLR M08/M12 A3028 RMK AO2 T10841116
KTKC 120235Z AUTO 33017G23KT 10SM CLR M08/M11 A3028 RMK AO2 T10801110
KTKC 120215Z AUTO 34018G24KT 10SM CLR M08/M10 A3028 RMK AO2 T10771103
KTKC 120155Z AUTO 34020G26KT 10SM CLR M07/M10 A3027 RMK AO2 T10731098
KTKC 120135Z AUTO 34019G28KT 10SM CLR M07/M09 A3025 RMK AO2 T10701092
KTKC 120115Z AUTO 33016G20KT 10SM CLR M07/M09 A3024 RMK AO2 T10691090
KTKC 120056Z AUTO 34018G24KT 10SM CLR M06/M09 A3023 RMK AO2 T10651090
KTKC 120035Z AUTO 34018G27KT 10SM CLR M06/M09 A3022 RMK AO2 T10641091
KTKC 120015Z AUTO 33017G24KT 10SM CLR M06/M09 A3021 RMK AO2 T10621090
KTKC 112355Z AUTO 33019G29KT 10SM BKN019 M06/M09 A3020 RMK AO2 T10571087 10004 21057
KTKC 112335Z AUTO 33019G26KT 10SM BKN019 M05/M08 A3018 RMK AO2 T10521080
KTKC 112315Z AUTO 33016G27KT 10SM SCT019 M05/M08 A3016 RMK AO2 T10511080
KTKC 112255Z AUTO 33023G33KT 10SM BKN017 M04/M07 A3015 RMK AO2 T10451075
KTKC 112235Z AUTO 34020G26KT 10SM OVC017 M04/M07 A3013 RMK AO2 T10401070
KTKC 112215Z AUTO 35020G30KT 10SM OVC017 M04/M06 A3012 RMK AO2 T10371065
KTKC 112155Z AUTO 33021G29KT 10SM OVC015 M03/M06 A3011 RMK AO2 T10321059
KTKC 112135Z AUTO 34022G28KT 10SM OVC015 M03/M05 A3011 RMK AO2 T10301054
KTKC 112115Z AUTO 34021G31KT 10SM OVC015 M03/M06 A3010 RMK AO2 T10301057
KTKC 112055Z AUTO 33027G33KT 10SM OVC015 M03/M05 A3008 RMK AO2 T10261053
KTKC 112035Z AUTO 34027G33KT 10SM OVC015 M02/M04 A3005 RMK AO2 T10181045
KTKC 112015Z AUTO 34027G37KT 10SM OVC013 M01/M04 A3004 RMK AO2 T10151039
KTKC 111955Z AUTO 34027G36KT 10SM OVC013 M01/M03 A3002 RMK AO2 T10101032
KTKC 111935Z AUTO 33025G31KT 10SM OVC011 M01/M03 A3001 RMK AO2 T10101026
KTKC 111855Z AUTO 34021G33KT 10SM OVC011 00/M02 A2997 RMK AO2 T10021017
KTKC 111835Z AUTO 34022G32KT 10SM OVC011 00/M01 A2996 RMK AO2 T00001015
KTKC 111815Z AUTO 34025G35KT 10SM OVC011 00/M01 A2994 RMK AO2 T00001013
KTKC 111755Z AUTO 34028G34KT 10SM OVC011 01/M01 A2993 RMK AO2 T00061008 10042 20006
KTKC 111735Z AUTO 33023G34KT 10SM BKN011 OVC018 02/00 A2991 RMK AO2 T00160000
KTKC 111715Z AUTO 34020G28KT 10SM OVC011 02/01 A2990 RMK AO2 T00220007
KTKC 111655Z AUTO 34024G34KT 10SM OVC011 03/01 A2988 RMK AO2 T00250010
KTKC 111635Z AUTO 34020G30KT 7SM -RA OVC009 03/02 A2987 RMK AO2 T00250015
KTKC 111616Z AUTO 33022G31KT 4SM DZ OVC009 03/02 A2986 RMK AO2 T00260015
KTKC 111555Z AUTO 33020G28KT 10SM -RA OVC011 03/02 A2985 RMK AO2 T00300015
KTKC 111535Z AUTO 33021G25KT 10SM OVC013 03/02 A2983 RMK AO2 T00310015
KTKC 111515Z AUTO 32018G24KT 10SM -DZ OVC015 03/02 A2982 RMK AO2 T00320015
KTKC 111455Z AUTO 32020G23KT 10SM OVC017 03/02 A2980 RMK AO2 T00330015
KTKC 111435Z AUTO 32021G25KT 10SM OVC019 03/02 A2978 RMK AO2 T00320015
KTKC 111415Z AUTO 31018G22KT 10SM OVC019 03/01 A2978 RMK AO2 T00300011
KTKC 111355Z AUTO 30014G19KT 10SM OVC021 03/01 A2977 RMK AO2 T00280008
KTKC 111335Z AUTO 30014KT 10SM -DZ OVC025 03/01 A2977 RMK AO2 T00250013
KTKC 111315Z AUTO 31017G22KT 7SM RA SCT014 BKN023 OVC031 03/02 A2976 RMK AO2 T00250015
KTKC 111255Z AUTO 31022G28KT 5SM RA SCT014 BKN029 OVC065 03/01 A2976 RMK AO2 T00290010
KTKC 111235Z AUTO 31021G29KT 10SM BKN065 BKN075 OVC090 04/00 A2975 RMK AO2 T00411004
KTKC 111215Z AUTO 31019G25KT 10SM SCT090 OVC110 04/M01 A2975 RMK AO2 T00411015
KTKC 111155Z AUTO 30014G18KT 10SM BKN110 04/M02 A2975 RMK AO2 T00411021 10045 20020
KTKC 111135Z AUTO 29012G20KT 10SM SCT060 SCT120 04/M02 A2975 RMK AO2 T00381023
KTKC 111115Z AUTO 27009G14KT 10SM SCT090 SCT120 04/M02 A2974 RMK AO2 T00371022
KTKC 111055Z AUTO 25007KT 10SM SCT090 BKN120 04/M02 A2973 RMK AO2 T00371020
KTKC 111035Z AUTO 30005KT 10SM BKN120 03/M02 A2975 RMK AO2 T00271020
KTKC 111015Z AUTO 27005KT 10SM BKN120 03/M02 A2974 RMK AO2 T00301019
KTKC 110955Z AUTO 25008KT 10SM CLR 04/M02 A2975 RMK AO2 T00351018
KTKC 110935Z AUTO 25012KT 10SM CLR 04/M02 A2976 RMK AO2 T00371016
KTKC 110915Z AUTO 24013G17KT 10SM SCT120 05/M01 A2976 RMK AO2 T00451015
KTKC 110855Z AUTO 24013G17KT 10SM BKN120 04/M01 A2978 RMK AO2 T00421013
KTKC 110836Z AUTO 26008G14KT 10SM SCT120 04/M01 A2980 RMK AO2 T00411014
KTKC 110815Z AUTO 26006KT 10SM OVC120 04/M01 A2981 RMK AO2 T00381011
KTKC 110755Z AUTO 25006KT 10SM OVC120 04/M01 A2983 RMK AO2 T00361010
KTKC 110735Z AUTO 25006KT 10SM BKN120 03/M01 A2984 RMK AO2 T00281010
KTKC 110715Z AUTO 24007KT 10SM BKN110 02/M01 A2985 RMK AO2 T00231010
KTKC 110655Z AUTO 23005KT 10SM OVC120 02/M01 A2986 RMK AO2 T00201010
KTKC 110635Z AUTO 23004KT 10SM OVC110 02/M01 A2986 RMK AO2 T00231010
KTKC 110615Z AUTO 24005KT 10SM SCT080 BKN110 02/M01 A2988 RMK AO2 T00231010
KTKC 110555Z AUTO 23006KT 10SM BKN080 BKN110 02/M01 A2988 RMK AO2 T00241010 10025 20002 400371006
KTKC 110535Z AUTO 23009KT 10SM SCT080 OVC100 02/M01 A2989 RMK AO2 T00211010
KTKC 110515Z AUTO 23007KT 10SM BKN110 01/M01 A2992 RMK AO2 T00141010
KTKC 110455Z AUTO 23004KT 10SM SCT110 01/M01 A2992 RMK AO2 T00141011
KTKC 110435Z AUTO 22007KT 10SM SCT120 02/M01 A2993 RMK AO2 T00161009
KTKC 110415Z AUTO 23007KT 10SM BKN110 02/M01 A2994 RMK AO2 T00151007
KTKC 110355Z AUTO 24005KT 10SM BKN110 01/M01 A2996 RMK AO2 T00121009
KTKC 110335Z AUTO 22005KT 10SM SCT100 BKN120 01/M01 A2995 RMK AO2 T00111010
KTKC 110315Z AUTO 21004KT 10SM SCT120 01/M01 A2995 RMK AO2 T00051014
KTKC 110255Z AUTO 18004KT 10SM BKN120 01/M02 A2996 RMK AO2 T00071019
KTKC 110235Z AUTO 17005KT 10SM OVC120 01/M02 A2997 RMK AO2 T00061020
KTKC 110215Z AUTO 16004KT 10SM SCT120 01/M02 A2998 RMK AO2 T00051023